createdAt,value
2023-03-17T15:03:25.278Z,6.50
2023-03-17T15:04:28.589Z,9.00
2023-03-17T15:05:31.836Z,7.00
2023-03-17T15:06:37.333Z,7.20
2023-03-17T15:07:40.344Z,6.50
2023-03-17T15:08:43.849Z,6.25
2023-03-17T15:09:54.458Z,7.00
2023-03-17T15:11:00.463Z,7.75
2023-03-17T15:12:07.586Z,7.50
2023-03-17T15:13:11.874Z,7.75
2023-03-17T15:14:15.776Z,8.50
2023-03-17T15:15:19.517Z,6.50
2023-03-17T15:16:23.634Z,6.25
2023-03-17T15:17:28.162Z,7.50
2023-03-17T15:18:31.766Z,8.00
2023-03-17T15:19:35.550Z,7.50
2023-03-17T15:20:39.125Z,7.25
2023-03-17T15:21:43.420Z,7.25
2023-03-17T15:22:46.510Z,7.00
2023-03-17T15:23:50.928Z,6.00
2023-03-17T15:24:56.444Z,6.00
2023-03-17T15:26:00.251Z,6.75
2023-03-17T15:27:03.938Z,7.25
2023-03-17T15:28:07.869Z,7.50
2023-03-17T15:29:19.210Z,9.00
2023-03-17T15:30:22.614Z,7.25
2023-03-17T15:31:28.388Z,6.50
2023-03-17T15:32:30.868Z,7.25
2023-03-17T15:33:34.282Z,7.50
2023-03-17T15:35:58.496Z,8.00
2023-03-17T15:37:07.699Z,8.00
2023-03-17T15:38:12.518Z,7.00
2023-03-17T15:39:16.210Z,6.50
2023-03-17T15:40:24.431Z,7.50
2023-03-17T15:41:27.610Z,6.00
2023-03-17T15:42:30.895Z,7.50
2023-03-17T15:43:34.294Z,7.00
2023-03-17T15:44:39.608Z,7.25
2023-03-17T15:45:44.962Z,8.00
2023-03-17T15:46:48.775Z,7.00
2023-03-17T15:47:54.194Z,8.00
2023-03-17T15:48:57.967Z,8.00
2023-03-17T15:50:01.652Z,7.50
2023-03-17T15:51:05.354Z,7.25
2023-03-17T15:52:09.342Z,6.50
2023-03-17T15:53:13.106Z,9.25
2023-03-17T15:54:21.651Z,12.00
2023-03-17T15:55:24.848Z,8.50
2023-03-17T15:56:29.077Z,7.25
2023-03-17T15:57:33.298Z,6.50
2023-03-17T15:58:42.175Z,7.50
2023-03-17T16:01:06.516Z,6.50
2023-03-17T16:02:09.928Z,6.25
2023-03-17T16:03:12.930Z,7.50
2023-03-17T16:04:22.618Z,7.00
2023-03-17T16:05:25.928Z,6.50
2023-03-17T16:06:29.310Z,6.50
2023-03-17T16:07:32.609Z,8.00
2023-03-17T16:08:36.082Z,7.50
2023-03-17T16:09:41.821Z,7.00
2023-03-17T16:10:45.128Z,7.25
2023-03-17T16:11:50.131Z,7.50
2023-03-17T16:12:53.496Z,7.25
2023-03-17T16:13:56.602Z,6.75
2023-03-17T16:15:01.887Z,6.50
2023-03-17T16:16:04.694Z,6.50
2023-03-17T16:17:08.090Z,7.00
2023-03-17T16:18:11.691Z,7.25
2023-03-17T16:19:30.181Z,8.00
2023-03-17T16:20:37.095Z,8.00
2023-03-17T16:21:40.923Z,6.50
2023-03-17T16:22:44.092Z,8.25
2023-03-17T16:23:47.563Z,9.25
2023-03-17T16:24:51.276Z,7.50
2023-03-17T16:26:14.908Z,7.00
2023-03-17T16:27:10.528Z,7.75
2023-03-17T16:28:14.344Z,7.75
2023-03-17T16:29:18.033Z,7.75
2023-03-17T16:30:24.071Z,7.00
2023-03-17T16:31:27.603Z,6.00
2023-03-17T16:32:31.785Z,6.50
2023-03-17T16:33:36.271Z,6.25
2023-03-17T16:34:41.810Z,7.00
2023-03-17T16:35:45.556Z,8.00
2023-03-17T16:36:48.892Z,7.50
2023-03-17T16:37:52.368Z,8.00
2023-03-17T16:38:56.737Z,6.75
2023-03-17T16:40:02.592Z,6.00
2023-03-17T16:41:07.470Z,7.50
2023-03-17T16:42:11.472Z,7.50
2023-03-17T16:43:24.511Z,6.00
2023-03-17T16:44:22.374Z,6.00
2023-03-17T16:45:26.126Z,6.50
2023-03-17T16:46:29.649Z,6.25
2023-03-17T16:47:32.953Z,7.00
2023-03-17T16:48:36.688Z,7.50
2023-03-17T16:49:40.276Z,6.50
2023-03-17T16:50:43.768Z,5.50
2023-03-17T16:51:49.321Z,7.50
2023-03-17T16:52:51.898Z,6.50
2023-03-17T16:53:55.363Z,6.25
2023-03-17T16:54:59.155Z,7.50
2023-03-17T16:56:02.661Z,6.00
2023-03-17T16:57:07.850Z,6.50
2023-03-17T16:58:10.446Z,7.50
2023-03-17T16:59:14.055Z,6.25
2023-03-17T17:00:17.340Z,7.25
2023-03-17T17:01:22.289Z,6.50
2023-03-17T17:02:25.888Z,6.50
2023-03-17T17:03:29.326Z,7.00
2023-03-17T17:04:32.641Z,7.00
2023-03-17T17:05:36.438Z,6.80
2023-03-17T17:06:44.111Z,6.00
2023-03-17T17:07:47.998Z,6.00
2023-03-17T17:08:52.226Z,7.50
2023-03-17T17:09:55.600Z,7.50
2023-03-17T17:10:59.382Z,6.00
2023-03-17T17:12:02.763Z,6.50
2023-03-17T17:13:07.574Z,8.00
2023-03-17T17:14:17.157Z,8.00
2023-03-17T17:15:22.978Z,8.00
2023-03-17T17:16:28.146Z,8.25
2023-03-17T17:17:32.640Z,7.75
2023-03-17T17:18:37.836Z,8.00
2023-03-17T17:19:44.096Z,7.00
2023-03-17T17:20:47.698Z,6.00
2023-03-17T17:21:51.477Z,7.00
2023-03-17T17:22:56.614Z,6.50
2023-03-17T17:24:00.211Z,7.00
2023-03-17T17:25:04.170Z,6.50
2023-03-17T17:26:08.198Z,5.75
2023-03-17T17:27:11.700Z,7.00
2023-03-17T17:28:19.237Z,7.75
2023-03-17T17:29:23.076Z,7.00
2023-03-17T17:30:27.178Z,7.25
2023-03-17T17:31:30.547Z,8.00
2023-03-17T17:32:34.206Z,7.50
2023-03-17T17:33:37.560Z,6.50
2023-03-17T17:34:41.327Z,6.00
2023-03-17T17:35:45.781Z,5.50
2023-03-17T17:36:54.457Z,6.00
2023-03-17T17:37:58.178Z,6.00
2023-03-17T17:39:01.844Z,6.00
2023-03-17T17:40:05.639Z,7.00
2023-03-17T17:41:09.637Z,7.00
2023-03-17T17:42:14.389Z,5.50
2023-03-17T17:43:17.567Z,6.50
2023-03-17T17:44:28.219Z,7.25
2023-03-17T17:45:32.402Z,7.25
2023-03-17T17:46:36.843Z,7.00
2023-03-17T17:47:51.076Z,6.00
2023-03-17T17:48:54.461Z,5.50
2023-03-17T17:50:00.115Z,5.50
2023-03-17T17:51:05.648Z,5.50
2023-03-17T17:52:13.137Z,5.50
2023-03-17T17:53:22.156Z,7.00
2023-03-17T17:54:25.563Z,9.50
2023-03-17T17:55:30.736Z,7.25
2023-03-17T17:56:34.638Z,6.75
2023-03-17T17:57:46.212Z,6.25
2023-03-17T17:58:50.011Z,7.50
2023-03-17T17:59:59.585Z,6.00
2023-03-17T18:01:03.086Z,6.00
2023-03-17T18:02:07.151Z,7.00
2023-03-17T18:03:10.332Z,6.00
2023-03-17T18:04:13.662Z,7.25
2023-03-17T18:05:17.401Z,7.75
2023-03-17T18:06:20.987Z,7.25
2023-03-17T18:07:25.000Z,6.75
2023-03-17T18:08:29.223Z,6.00
2023-03-17T18:09:34.548Z,6.25
2023-03-17T18:10:38.529Z,6.50
2023-03-17T18:11:44.586Z,7.50
2023-03-17T18:12:48.912Z,7.00
2023-03-17T18:13:52.415Z,6.00
2023-03-17T18:14:56.693Z,6.50
2023-03-17T18:15:59.887Z,6.00
2023-03-17T18:17:03.653Z,6.25
2023-03-17T18:18:07.364Z,7.75
2023-03-17T18:19:10.955Z,7.50
2023-03-17T18:20:14.746Z,7.00
2023-03-17T18:21:18.755Z,6.75
2023-03-17T18:22:21.931Z,7.00
2023-03-17T18:23:25.432Z,8.00
2023-03-17T18:24:28.831Z,6.50
2023-03-17T18:25:33.044Z,5.00
2023-03-17T18:26:36.917Z,6.00
2023-03-17T18:27:40.195Z,7.00
2023-03-17T18:28:52.096Z,6.00
2023-03-17T18:29:58.240Z,6.00
2023-03-17T18:31:01.825Z,6.25
2023-03-17T18:32:05.245Z,5.50
2023-03-17T18:33:08.428Z,6.50
2023-03-17T18:34:12.780Z,6.50
2023-03-17T18:35:16.328Z,6.25
2023-03-17T18:36:25.848Z,8.00
2023-03-17T18:37:33.573Z,8.50
2023-03-17T18:38:38.837Z,7.00
2023-03-17T18:39:42.149Z,5.75
2023-03-17T18:40:53.367Z,6.50
2023-03-17T18:41:59.871Z,6.75
2023-03-17T18:43:03.904Z,6.00
2023-03-17T18:44:07.378Z,6.50
2023-03-17T18:45:10.846Z,6.50
2023-03-17T18:46:17.100Z,7.00
2023-03-17T18:47:23.441Z,7.00
2023-03-17T18:48:27.466Z,5.50
2023-03-17T18:49:40.473Z,5.00
2023-03-17T18:50:52.046Z,4.50
2023-03-17T18:52:01.681Z,6.75
2023-03-17T18:53:05.887Z,7.00
2023-03-17T18:55:32.721Z,7.00
2023-03-17T18:56:36.209Z,8.75
2023-03-17T18:57:39.599Z,8.25
2023-03-17T18:58:56.815Z,6.50
2023-03-17T19:00:13.244Z,6.75
2023-03-17T19:01:19.387Z,7.00
2023-03-17T19:02:23.552Z,6.00
2023-03-17T19:03:30.550Z,7.00
2023-03-17T19:04:34.527Z,7.25
2023-03-17T19:05:38.119Z,6.50
2023-03-17T19:06:43.256Z,7.00
2023-03-17T19:07:49.097Z,5.50
2023-03-17T19:08:58.204Z,7.50
2023-03-17T19:10:02.938Z,6.50
2023-03-17T19:11:06.394Z,6.00
2023-03-17T19:12:12.971Z,6.00
2023-03-17T19:13:19.036Z,6.25
2023-03-17T19:14:22.511Z,5.00
2023-03-17T19:15:29.962Z,6.75
2023-03-17T19:16:36.047Z,7.00
2023-03-17T19:17:39.757Z,6.00
2023-03-17T19:18:45.578Z,6.00
2023-03-17T19:19:49.477Z,6.50
2023-03-17T19:20:54.200Z,6.50
2023-03-17T19:21:58.488Z,7.00
2023-03-17T19:25:52.670Z,6.75
2023-03-17T19:42:48.648Z,7.00
2023-03-17T19:46:41.518Z,7.50
2023-03-17T19:47:44.986Z,7.00
2023-03-17T19:48:49.376Z,7.00
2023-03-17T19:49:57.218Z,7.00
2023-03-17T19:51:06.987Z,7.00
2023-03-17T19:52:12.046Z,7.00
2023-03-17T19:53:16.288Z,5.50
2023-03-17T19:54:22.858Z,5.75
2023-03-17T19:55:33.828Z,6.50
2023-03-17T19:56:45.075Z,7.25
2023-03-17T19:57:50.477Z,6.00
2023-03-17T19:58:53.765Z,6.00
2023-03-17T20:00:10.816Z,7.00
2023-03-17T20:01:14.593Z,7.00
2023-03-17T20:02:19.595Z,6.00
2023-03-17T20:03:26.428Z,6.50
2023-03-17T20:04:35.400Z,7.25
2023-03-17T20:05:54.222Z,7.75
2023-03-17T20:07:03.006Z,7.50
2023-03-17T20:08:06.647Z,6.00
2023-03-17T20:09:16.155Z,8.00
2023-03-17T20:10:27.013Z,7.50
2023-03-17T20:11:33.721Z,6.50
2023-03-17T20:12:39.310Z,6.50
2023-03-17T20:13:48.012Z,7.25
2023-03-17T20:14:59.970Z,7.50
2023-03-17T20:16:16.963Z,7.00
2023-03-17T20:17:23.726Z,7.50
2023-03-17T20:18:30.254Z,6.25
2023-03-17T20:19:38.017Z,6.00
2023-03-17T20:20:43.476Z,7.00
2023-03-17T20:21:47.288Z,7.00
2023-03-17T20:24:18.743Z,7.75
2023-03-17T20:25:23.953Z,7.00
2023-03-17T20:26:27.752Z,6.50
2023-03-17T20:27:32.555Z,7.75
2023-03-17T20:29:57.352Z,7.00
2023-03-17T20:32:25.519Z,7.50
2023-03-17T20:33:37.327Z,8.25
2023-03-17T20:34:54.590Z,7.50
2023-03-17T20:37:19.426Z,7.75
2023-03-17T20:41:07.581Z,6.50
2023-03-17T20:42:11.811Z,7.75
2023-03-17T20:44:36.162Z,6.50
2023-03-17T20:45:42.934Z,6.50
2023-03-17T20:46:47.069Z,6.00
2023-03-17T20:47:50.948Z,4.75
2023-03-17T20:50:18.511Z,5.00
2023-03-17T20:51:27.974Z,5.50
2023-03-17T20:52:35.331Z,5.50
2023-03-17T20:55:04.107Z,6.25
2023-03-17T20:56:11.116Z,7.50
2023-03-17T20:57:20.001Z,5.00
2023-03-17T20:58:30.330Z,5.75
2023-03-17T20:59:39.909Z,7.00
2023-03-17T21:02:18.916Z,6.50
2023-03-17T21:06:14.758Z,7.50
2023-03-17T21:18:12.972Z,5.25
2023-03-17T21:19:27.022Z,7.00
2023-03-17T21:51:41.275Z,6.50
2023-03-17T21:52:49.780Z,6.75
2023-03-17T21:54:01.071Z,6.25
2023-03-17T21:55:04.859Z,5.25
2023-03-17T21:56:08.561Z,6.25
2023-03-17T21:57:13.900Z,7.00
2023-03-17T21:58:17.507Z,6.00
2023-03-17T21:59:29.548Z,6.75
2023-03-17T22:00:44.780Z,5.50
2023-03-17T22:01:43.797Z,6.00
2023-03-17T22:02:54.994Z,7.50
2023-03-17T22:03:59.174Z,6.50
2023-03-17T22:06:25.712Z,7.00
2023-03-17T22:07:29.123Z,6.50
2023-03-17T22:20:44.452Z,7.25
2023-03-17T22:21:49.620Z,8.50
2023-03-17T22:22:59.951Z,7.00
2023-03-17T22:26:49.979Z,8.00
2023-03-17T22:34:51.012Z,10.00
2023-03-17T22:35:57.111Z,10.50
2023-03-17T22:37:11.524Z,8.75
2023-03-17T22:38:27.238Z,10.50
2023-03-17T22:41:04.812Z,10.25
2023-03-17T22:43:33.468Z,10.50
2023-03-17T22:46:10.837Z,12.50
2023-03-17T22:48:39.652Z,13.00
2023-03-17T22:52:26.280Z,12.00
2023-03-17T22:53:32.414Z,12.25
2023-03-17T22:58:40.665Z,11.00
2023-03-17T23:01:10.572Z,12.50
2023-03-17T23:10:33.432Z,10.00
2023-03-17T23:17:13.745Z,10.00
2023-03-17T23:53:32.052Z,11.00
